Terminal Aerodrome Forecast
Issued by NWS

Home | Current Version | Previous Version | Text Only | Print | Product List | Glossary On
Versions: 1 2 3 4 5 6 7 8 9 10 11 12 13 14 15 16 17 18 19 20 21 22 23 24
000
FTUS45 KGJT 302322
TAFVEL
TAF
KVEL 302322Z 3100/3124 24007KT P6SM VCSH SCT120
     FM310200 36007KT P6SM SCT080 BKN100
     FM310600 30004KT P6SM SCT070 BKN150
     FM311400 VRB03KT P6SM SCT150
     FM311800 18005KT P6SM SCT200=

USA.gov is the U.S. government's official web portal to all federal, state and local government web resources and services.